createdAt,value
2018-06-18T00:01:08.444Z,3.30
2018-06-18T00:03:41.883Z,3.45
2018-06-18T00:06:10.222Z,3.70
2018-06-18T00:08:38.512Z,3.40
2018-06-18T00:11:06.880Z,3.70
2018-06-18T00:13:58.011Z,3.20
2018-06-18T00:16:26.740Z,3.70
2018-06-18T00:18:55.069Z,3.65
2018-06-18T00:21:23.338Z,3.57
2018-06-18T00:23:51.644Z,3.50
2018-06-18T00:26:19.946Z,3.60
2018-06-18T00:28:48.242Z,3.47
2018-06-18T00:31:16.757Z,3.47
2018-06-18T00:33:54.552Z,3.42
2018-06-18T00:36:22.852Z,3.50
2018-06-18T00:38:59.326Z,3.47
2018-06-18T00:41:27.730Z,3.42
2018-06-18T00:43:56.129Z,3.60
2018-06-18T00:46:24.432Z,3.90
2018-06-18T00:48:53.962Z,3.60
2018-06-18T00:51:22.676Z,3.22
2018-06-18T00:53:51.516Z,3.65
2018-06-18T00:56:19.838Z,3.80
2018-06-18T00:58:48.218Z,3.85
2018-06-18T01:01:16.531Z,3.70
2018-06-18T01:06:51.213Z,3.50
2018-06-18T01:09:19.527Z,3.55
2018-06-18T01:11:47.824Z,3.58
2018-06-18T01:14:22.146Z,3.60
2018-06-18T01:16:50.436Z,3.52
2018-06-18T01:19:18.720Z,3.80
2018-06-18T01:21:49.684Z,3.42
2018-06-18T01:24:57.456Z,3.25
2018-06-18T01:27:25.874Z,3.52
2018-06-18T01:29:54.768Z,3.60
2018-06-18T01:32:23.159Z,3.90
2018-06-18T01:34:51.498Z,4.10
2018-06-18T01:37:19.782Z,3.92
2018-06-18T01:39:48.085Z,4.22
2018-06-18T01:42:16.394Z,4.25
2018-06-18T01:44:44.857Z,3.80
2018-06-18T01:47:14.022Z,3.90
2018-06-18T01:49:42.374Z,3.90
2018-06-18T01:52:10.654Z,4.10
2018-06-18T01:54:39.035Z,3.90
2018-06-18T01:57:07.352Z,4.08
2018-06-18T01:59:35.642Z,4.00
2018-06-18T02:02:04.230Z,4.30
2018-06-18T02:04:32.764Z,4.67
2018-06-18T02:07:01.114Z,4.40
2018-06-18T02:09:29.466Z,4.08
2018-06-18T02:11:58.234Z,4.45
2018-06-18T02:14:26.520Z,4.37
2018-06-18T02:16:55.193Z,4.47
2018-06-18T02:19:23.514Z,4.62
2018-06-18T02:21:51.877Z,4.50
2018-06-18T02:24:20.312Z,4.50
2018-06-18T02:26:52.900Z,4.60
2018-06-18T02:30:30.413Z,4.53
2018-06-18T02:33:04.533Z,4.50
2018-06-18T02:35:38.190Z,4.33
2018-06-18T02:38:11.956Z,4.43
2018-06-18T02:40:45.085Z,4.50
2018-06-18T02:43:27.227Z,4.67
2018-06-18T02:45:55.547Z,4.42
2018-06-18T02:48:23.800Z,4.17
2018-06-18T02:50:52.130Z,4.20
2018-06-18T02:56:14.149Z,4.05
2018-06-18T02:58:42.436Z,4.20
2018-06-18T03:01:11.255Z,3.98
2018-06-18T03:09:39.044Z,3.85
2018-06-18T03:12:07.656Z,3.83
2018-06-18T03:14:41.094Z,3.83
2018-06-18T03:17:09.485Z,3.67
2018-06-18T03:19:43.184Z,4.45
2018-06-18T03:22:16.908Z,4.10
2018-06-18T03:33:32.255Z,4.40
2018-06-18T03:36:00.578Z,4.30
2018-06-18T03:38:28.876Z,4.50
2018-06-18T03:40:57.186Z,4.60
2018-06-18T03:43:25.792Z,4.87
2018-06-18T03:45:54.241Z,5.10
2018-06-18T03:48:22.878Z,5.28
2018-06-18T03:50:51.266Z,5.55
2018-06-18T03:53:33.418Z,5.10
2018-06-18T03:56:02.017Z,5.80
2018-06-18T03:58:30.498Z,5.90
2018-06-18T04:02:15.750Z,5.87
2018-06-18T04:10:48.576Z,6.25
2018-06-18T04:13:26.386Z,6.55
2018-06-18T04:15:54.633Z,5.53
2018-06-18T04:20:51.226Z,6.05
2018-06-18T04:23:19.760Z,5.80
2018-06-18T04:25:48.366Z,6.80
2018-06-18T04:28:16.767Z,6.10
2018-06-18T04:30:46.069Z,5.58
2018-06-18T04:33:22.318Z,6.15
2018-06-18T04:35:51.304Z,6.30
2018-06-18T04:38:19.580Z,6.10
2018-06-18T04:40:48.673Z,5.55
2018-06-18T04:43:41.105Z,5.80
2018-06-18T04:46:25.394Z,5.08
2018-06-18T04:48:59.134Z,5.60
2018-06-18T04:51:27.897Z,5.90
2018-06-18T04:54:01.741Z,6.65
2018-06-18T04:56:30.988Z,6.58
2018-06-18T04:58:59.786Z,6.42
2018-06-18T05:01:30.384Z,5.70
2018-06-18T05:03:59.191Z,6.33
2018-06-18T05:06:29.461Z,5.80
2018-06-18T05:10:05.340Z,6.08
2018-06-18T05:12:34.656Z,6.03
2018-06-18T05:15:03.883Z,7.08
2018-06-18T05:17:32.555Z,6.05
2018-06-18T05:20:01.255Z,7.62
2018-06-18T05:22:29.790Z,6.67
2018-06-18T05:24:58.462Z,6.80
2018-06-18T05:27:31.738Z,6.72
2018-06-18T05:30:18.961Z,8.50
2018-06-18T05:32:47.310Z,8.00
2018-06-18T05:35:15.938Z,6.80
2018-06-18T05:37:52.640Z,6.53
2018-06-18T05:40:22.985Z,7.00
2018-06-18T05:42:52.758Z,5.87
2018-06-18T05:45:39.920Z,5.85
2018-06-18T05:48:09.550Z,6.65
2018-06-18T05:50:38.547Z,6.17
2018-06-18T05:53:07.765Z,5.85
2018-06-18T05:55:36.404Z,5.95
2018-06-18T05:58:04.989Z,6.72
2018-06-18T06:00:33.443Z,5.55
2018-06-18T06:03:01.832Z,6.00
2018-06-18T06:05:30.346Z,5.70
2018-06-18T06:07:58.789Z,5.80
2018-06-18T06:10:27.626Z,5.47
2018-06-18T06:12:56.318Z,6.00
2018-06-18T06:15:28.518Z,6.70
2018-06-18T06:17:57.140Z,7.45
2018-06-18T06:20:25.587Z,5.62
2018-06-18T06:23:03.118Z,6.05
2018-06-18T06:25:32.970Z,5.72
2018-06-18T06:28:01.442Z,7.85
2018-06-18T06:30:29.832Z,6.35
2018-06-18T06:32:58.364Z,6.22
2018-06-18T06:35:30.505Z,6.08
2018-06-18T06:37:59.020Z,6.60
2018-06-18T06:40:27.537Z,6.22
2018-06-18T06:42:56.088Z,6.10
2018-06-18T06:45:24.666Z,5.12
2018-06-18T06:47:53.137Z,5.75
2018-06-18T06:50:21.565Z,4.85
2018-06-18T06:52:50.028Z,5.37
2018-06-18T06:55:18.642Z,5.97
2018-06-18T06:57:47.054Z,7.53
2018-06-18T07:00:15.582Z,5.92
2018-06-18T07:02:45.583Z,5.83
2018-06-18T07:05:14.466Z,5.42
2018-06-18T07:07:43.058Z,6.08
2018-06-18T07:10:11.549Z,5.75
2018-06-18T07:12:41.400Z,5.72
2018-06-18T07:15:10.074Z,5.92
2018-06-18T07:17:39.764Z,6.42
2018-06-18T07:20:08.420Z,6.33
2018-06-18T07:22:37.225Z,6.08
2018-06-18T07:25:05.712Z,6.33
2018-06-18T07:27:34.190Z,6.23
2018-06-18T07:30:02.597Z,6.42
2018-06-18T07:32:31.072Z,6.60
2018-06-18T07:34:59.594Z,6.70
2018-06-18T07:37:28.358Z,6.27
2018-06-18T07:39:57.054Z,6.80
2018-06-18T07:42:25.767Z,6.07
2018-06-18T07:44:54.367Z,6.10
2018-06-18T07:47:23.427Z,6.40
2018-06-18T07:49:52.308Z,6.25
2018-06-18T07:52:22.288Z,6.37
2018-06-18T07:54:50.886Z,6.73
2018-06-18T07:57:19.369Z,6.80
2018-06-18T07:59:47.817Z,8.20
2018-06-18T08:02:16.339Z,6.75
2018-06-18T08:04:44.790Z,6.33
2018-06-18T08:07:13.352Z,6.08
2018-06-18T08:09:42.119Z,6.50
2018-06-18T08:12:10.574Z,6.13
2018-06-18T08:14:39.270Z,6.30
2018-06-18T08:17:07.803Z,6.33
2018-06-18T08:19:36.265Z,6.50
2018-06-18T08:22:04.771Z,6.30
2018-06-18T08:24:35.892Z,6.58
2018-06-18T08:27:07.135Z,6.15
2018-06-18T08:29:35.576Z,6.28
2018-06-18T08:32:04.154Z,6.25
2018-06-18T08:34:37.717Z,5.90
2018-06-18T08:37:06.536Z,6.05
2018-06-18T08:39:34.974Z,6.62
2018-06-18T08:42:03.500Z,6.37
2018-06-18T08:44:32.059Z,6.35
2018-06-18T08:47:01.012Z,6.28
2018-06-18T08:49:29.494Z,6.60
2018-06-18T08:52:03.339Z,6.58
2018-06-18T08:54:37.110Z,7.03
2018-06-18T08:57:11.091Z,6.70
2018-06-18T08:59:44.796Z,7.15
2018-06-18T09:02:13.332Z,6.87
2018-06-18T09:04:49.374Z,7.85
2018-06-18T09:07:21.902Z,7.47
2018-06-18T09:09:50.358Z,6.10
2018-06-18T09:12:18.929Z,6.20
2018-06-18T09:14:47.456Z,6.87
2018-06-18T09:17:15.918Z,6.03
2018-06-18T09:19:44.586Z,4.80
2018-06-18T09:22:13.247Z,5.80
2018-06-18T09:24:42.072Z,6.83
2018-06-18T09:27:12.568Z,5.55
2018-06-18T09:30:11.792Z,6.30
2018-06-18T09:32:40.880Z,5.20
2018-06-18T09:35:09.258Z,6.45
2018-06-18T09:37:38.152Z,6.08
2018-06-18T09:40:06.725Z,4.60
2018-06-18T09:42:35.262Z,4.72
2018-06-18T09:45:04.171Z,4.27
2018-06-18T09:47:32.804Z,4.58
2018-06-18T09:51:04.247Z,4.63
2018-06-18T09:53:37.920Z,6.10
2018-06-18T09:56:11.760Z,5.95
2018-06-18T09:58:45.482Z,5.93
2018-06-18T10:01:22.124Z,6.12
2018-06-18T10:03:51.314Z,7.05
2018-06-18T10:06:20.690Z,4.58
2018-06-18T10:08:49.368Z,4.62
2018-06-18T10:11:18.095Z,4.40
2018-06-18T10:13:46.638Z,4.90
2018-06-18T10:16:15.108Z,4.40
2018-06-18T10:18:43.751Z,4.80
2018-06-18T10:21:12.320Z,4.60
2018-06-18T10:23:41.790Z,4.92
2018-06-18T10:26:10.248Z,4.53
2018-06-18T10:28:39.356Z,4.40
2018-06-18T10:31:07.993Z,4.62
2018-06-18T10:33:41.797Z,4.33
2018-06-18T10:36:15.296Z,4.35
2018-06-18T10:38:49.014Z,3.72
2018-06-18T10:41:23.149Z,4.00
2018-06-18T10:43:51.697Z,3.93
2018-06-18T10:46:20.156Z,4.03
2018-06-18T10:48:48.723Z,4.92
2018-06-18T10:51:17.310Z,3.95
2018-06-18T10:53:45.686Z,4.08
2018-06-18T10:56:14.126Z,5.83
2018-06-18T10:58:42.897Z,4.40
2018-06-18T11:01:13.733Z,4.22
2018-06-18T11:03:42.140Z,4.17
2018-06-18T11:06:16.233Z,3.70
2018-06-18T11:08:44.941Z,4.00
2018-06-18T11:11:13.595Z,3.95
2018-06-18T11:13:42.131Z,3.60
2018-06-18T11:16:10.848Z,3.77
2018-06-18T11:18:44.724Z,4.00
2018-06-18T11:21:18.378Z,3.55
2018-06-18T11:23:51.994Z,3.53
2018-06-18T11:26:25.714Z,3.30
2018-06-18T11:28:54.181Z,3.20
2018-06-18T11:31:22.809Z,3.47
2018-06-18T11:33:51.443Z,3.25
2018-06-18T11:36:19.911Z,2.80
2018-06-18T11:38:48.529Z,3.12
2018-06-18T11:41:17.206Z,3.13
2018-06-18T11:43:45.676Z,3.10
2018-06-18T11:46:14.146Z,3.00
2018-06-18T11:48:42.657Z,3.30
2018-06-18T11:51:11.211Z,3.67
2018-06-18T11:53:39.670Z,3.15
2018-06-18T11:59:17.335Z,2.87
2018-06-18T12:01:51.280Z,3.12
2018-06-18T12:04:25.433Z,3.22
2018-06-18T12:06:59.296Z,3.02
2018-06-18T12:09:32.619Z,3.00
2018-06-18T12:12:01.142Z,3.20
2018-06-18T12:14:30.111Z,5.55
2018-06-18T12:16:58.572Z,2.93
2018-06-18T12:19:27.195Z,3.93
2018-06-18T12:21:55.621Z,4.42
2018-06-18T12:24:29.865Z,3.35
2018-06-18T12:26:59.091Z,3.37
2018-06-18T12:29:27.617Z,2.95
2018-06-18T12:31:56.210Z,3.40
2018-06-18T12:34:29.940Z,3.27
2018-06-18T12:36:58.382Z,3.30
2018-06-18T12:39:27.362Z,2.70
2018-06-18T12:42:00.642Z,2.87
2018-06-18T12:44:34.061Z,3.70
2018-06-18T12:48:05.444Z,4.15
2018-06-18T12:50:39.262Z,2.90
2018-06-18T12:53:12.989Z,2.40
2018-06-18T12:55:46.672Z,3.60
2018-06-18T12:58:15.832Z,2.40
2018-06-18T13:00:46.144Z,3.90
2018-06-18T13:03:16.618Z,2.42
2018-06-18T13:05:46.136Z,2.27
2018-06-18T13:08:15.972Z,2.10
2018-06-18T13:10:45.845Z,2.30
2018-06-18T13:13:14.254Z,2.00
2018-06-18T13:15:44.247Z,1.90
2018-06-18T13:18:13.424Z,1.90
2018-06-18T13:20:44.398Z,2.00
2018-06-18T13:23:12.932Z,4.00
2018-06-18T13:25:41.671Z,3.22
2018-06-18T13:28:15.265Z,2.72
2018-06-18T13:30:43.702Z,2.70
2018-06-18T13:33:12.332Z,2.43
2018-06-18T13:35:40.954Z,2.40
2018-06-18T13:38:14.848Z,2.00
2018-06-18T13:40:48.734Z,2.10
2018-06-18T13:43:22.595Z,1.80
2018-06-18T13:46:58.068Z,2.03
2018-06-18T13:49:31.846Z,2.20
2018-06-18T13:52:00.627Z,2.30
2018-06-18T13:54:29.194Z,2.47
2018-06-18T13:56:57.666Z,2.10
2018-06-18T13:59:26.193Z,1.92
2018-06-18T14:01:54.645Z,2.08
2018-06-18T14:04:23.040Z,1.98
2018-06-18T14:06:51.534Z,2.05
2018-06-18T14:09:20.120Z,2.60
2018-06-18T14:11:48.576Z,2.20
2018-06-18T14:14:17.335Z,2.10
2018-06-18T14:16:45.898Z,2.22
2018-06-18T14:19:19.774Z,2.15
2018-06-18T14:21:48.289Z,2.00
2018-06-18T14:24:16.758Z,2.00
2018-06-18T14:26:45.348Z,2.12
2018-06-18T14:29:19.086Z,2.02
2018-06-18T14:31:52.808Z,2.37
2018-06-18T14:34:26.485Z,3.27
2018-06-18T14:37:00.306Z,2.27
2018-06-18T14:39:34.666Z,2.45
2018-06-18T14:42:03.813Z,2.50
2018-06-18T14:44:33.616Z,2.85
2018-06-18T14:47:02.058Z,2.22
2018-06-18T14:49:30.572Z,1.75
2018-06-18T14:51:59.236Z,2.52
2018-06-18T14:54:28.040Z,2.33
2018-06-18T14:57:00.249Z,2.30
2018-06-18T14:59:39.207Z,2.40
2018-06-18T15:02:09.244Z,2.13
2018-06-18T15:04:43.122Z,2.30
2018-06-18T15:07:11.891Z,2.05
2018-06-18T15:09:41.010Z,2.08
2018-06-18T15:12:10.718Z,1.90
2018-06-18T15:14:39.366Z,1.95
2018-06-18T15:17:07.957Z,2.00
2018-06-18T15:19:36.907Z,1.80
2018-06-18T15:22:08.297Z,2.00
2018-06-18T15:24:48.835Z,2.20
2018-06-18T15:27:18.204Z,2.10
2018-06-18T15:29:47.133Z,2.10
2018-06-18T15:32:16.685Z,2.17
2018-06-18T15:34:45.728Z,6.10
2018-06-18T15:37:14.301Z,2.00
2018-06-18T15:39:43.042Z,1.92
2018-06-18T15:42:11.657Z,1.90
2018-06-18T15:44:40.874Z,2.00
2018-06-18T15:47:09.277Z,2.37
2018-06-18T15:49:37.681Z,2.25
2018-06-18T15:52:06.181Z,2.30
2018-06-18T15:57:27.845Z,2.70
2018-06-18T15:59:56.616Z,2.60
2018-06-18T16:02:25.364Z,2.10
2018-06-18T16:04:53.741Z,2.67
2018-06-18T16:07:22.169Z,1.90
2018-06-18T16:09:50.743Z,2.07
2018-06-18T16:12:19.271Z,1.80
2018-06-18T16:14:47.849Z,2.20
2018-06-18T16:17:16.737Z,2.12
2018-06-18T16:19:45.645Z,2.10
2018-06-18T16:22:14.245Z,2.35
2018-06-18T16:24:43.200Z,2.40
2018-06-18T16:27:11.844Z,2.30
2018-06-18T16:29:41.205Z,2.30
2018-06-18T16:32:09.936Z,2.17
2018-06-18T16:34:38.591Z,2.60
2018-06-18T16:37:07.126Z,2.20
2018-06-18T16:39:35.675Z,1.80
2018-06-18T16:42:06.217Z,2.10
2018-06-18T16:44:35.189Z,2.20
2018-06-18T16:47:04.035Z,2.20
2018-06-18T16:49:33.271Z,2.27
2018-06-18T16:52:02.504Z,2.20
2018-06-18T16:54:31.200Z,2.27
2018-06-18T16:57:00.171Z,2.37
2018-06-18T16:59:32.959Z,2.10
2018-06-18T17:02:02.134Z,2.08
2018-06-18T17:04:30.980Z,2.12
2018-06-18T17:07:00.041Z,2.33
2018-06-18T17:09:28.525Z,2.33
2018-06-18T17:11:57.403Z,3.67
2018-06-18T17:14:25.991Z,3.67
2018-06-18T17:16:54.639Z,5.78
2018-06-18T17:19:23.857Z,4.07
2018-06-18T17:21:52.563Z,2.77
2018-06-18T17:24:21.070Z,3.22
2018-06-18T17:26:49.583Z,3.10
2018-06-18T17:29:20.799Z,2.80
2018-06-18T17:31:50.536Z,2.52
2018-06-18T17:34:19.196Z,2.37
2018-06-18T17:36:48.039Z,2.50
2018-06-18T17:39:16.743Z,2.50
2018-06-18T17:41:45.634Z,2.60
2018-06-18T17:44:14.297Z,2.10
2018-06-18T17:46:43.417Z,2.02
2018-06-18T17:49:12.131Z,2.37
2018-06-18T17:51:41.197Z,2.20
2018-06-18T17:54:09.931Z,2.70
2018-06-18T17:56:38.816Z,2.45
2018-06-18T17:59:07.323Z,2.00
2018-06-18T18:01:36.005Z,1.95
2018-06-18T18:04:04.938Z,2.20
2018-06-18T18:06:34.082Z,1.82
2018-06-18T18:09:02.944Z,2.05
2018-06-18T18:11:32.085Z,2.23
2018-06-18T18:14:10.004Z,2.47
2018-06-18T18:16:39.265Z,2.53
2018-06-18T18:19:07.883Z,2.00
2018-06-18T18:21:36.438Z,1.90
2018-06-18T18:24:05.320Z,1.90
2018-06-18T18:26:33.949Z,3.40
2018-06-18T18:29:02.989Z,2.27
2018-06-18T18:31:32.081Z,3.80
2018-06-18T18:34:01.416Z,2.30
2018-06-18T18:36:30.233Z,2.00
2018-06-18T18:38:59.421Z,1.92
2018-06-18T18:41:28.492Z,2.13
2018-06-18T18:43:57.781Z,1.90
2018-06-18T18:46:26.436Z,2.30
2018-06-18T18:48:55.199Z,3.07
2018-06-18T18:51:24.671Z,2.90
2018-06-18T18:53:53.216Z,2.80
2018-06-18T18:56:33.157Z,2.63
2018-06-18T18:59:37.094Z,2.30
2018-06-18T19:02:08.182Z,3.47
2018-06-18T19:04:53.601Z,2.30
2018-06-18T19:07:41.545Z,2.65
2018-06-18T19:10:21.638Z,2.22
2018-06-18T19:12:51.206Z,2.57
2018-06-18T19:15:25.159Z,2.37
2018-06-18T19:17:54.037Z,1.90
2018-06-18T19:20:35.027Z,2.17
2018-06-18T19:23:04.015Z,2.30
2018-06-18T19:25:46.258Z,2.20
2018-06-18T19:28:14.959Z,2.20
2018-06-18T19:30:46.563Z,2.30
2018-06-18T19:33:19.311Z,4.05
2018-06-18T19:35:47.785Z,2.72
2018-06-18T19:38:16.410Z,2.50
2018-06-18T19:40:45.131Z,2.60
2018-06-18T19:43:13.739Z,2.98
2018-06-18T19:45:51.255Z,2.30
2018-06-18T19:48:28.016Z,2.53
2018-06-18T19:50:57.581Z,2.50
2018-06-18T19:53:26.453Z,2.47
2018-06-18T19:55:56.510Z,2.47
2018-06-18T19:58:25.657Z,2.40
2018-06-18T20:00:57.278Z,2.40
2018-06-18T20:03:30.492Z,2.40
2018-06-18T20:05:59.149Z,2.70
2018-06-18T20:08:30.839Z,2.67
2018-06-18T20:10:59.719Z,3.47
2018-06-18T20:13:28.345Z,4.80
2018-06-18T20:15:57.945Z,4.70
2018-06-18T20:18:27.377Z,3.00
2018-06-18T20:20:56.753Z,2.75
2018-06-18T20:23:28.669Z,2.77
2018-06-18T20:26:02.079Z,3.00
2018-06-18T20:28:30.587Z,2.92
2018-06-18T20:30:59.875Z,2.67
2018-06-18T20:33:29.425Z,2.80
2018-06-18T20:36:08.729Z,2.80
2018-06-18T20:38:37.419Z,2.90
2018-06-18T20:41:06.697Z,3.03
2018-06-18T20:43:46.260Z,2.80
2018-06-18T20:46:16.081Z,2.95
2018-06-18T20:48:45.671Z,2.50
2018-06-18T20:51:14.374Z,2.77
2018-06-18T20:53:43.243Z,2.80
2018-06-18T20:56:12.056Z,2.87
2018-06-18T20:58:41.271Z,3.10
2018-06-18T21:01:12.366Z,2.90
2018-06-18T21:03:47.135Z,2.52
2018-06-18T21:06:15.855Z,2.70
2018-06-18T21:08:44.529Z,3.00
2018-06-18T21:11:13.255Z,2.80
2018-06-18T21:13:42.138Z,3.10
2018-06-18T21:16:11.695Z,2.80
2018-06-18T21:18:40.039Z,2.90
2018-06-18T21:21:08.573Z,2.92
2018-06-18T21:23:39.587Z,2.80
2018-06-18T21:26:09.071Z,3.10
2018-06-18T21:28:37.594Z,3.10
2018-06-18T21:31:06.356Z,2.90
2018-06-18T21:33:35.099Z,2.90
2018-06-18T21:36:03.725Z,3.00
2018-06-18T21:38:32.919Z,2.70
2018-06-18T21:41:01.865Z,2.97
2018-06-18T21:43:30.675Z,3.10
2018-06-18T21:45:59.640Z,3.20
2018-06-18T21:48:28.896Z,3.03
2018-06-18T21:50:58.354Z,3.00
2018-06-18T21:53:27.387Z,3.30
2018-06-18T21:55:56.285Z,3.15
2018-06-18T21:58:24.775Z,2.98
2018-06-18T22:00:53.959Z,3.42
2018-06-18T22:03:22.509Z,3.30
2018-06-18T22:05:56.232Z,3.22
2018-06-18T22:08:26.239Z,3.17
2018-06-18T22:10:55.060Z,3.10
2018-06-18T22:13:23.629Z,3.10
2018-06-18T22:15:52.333Z,3.40
2018-06-18T22:18:21.066Z,3.07
2018-06-18T22:20:49.774Z,3.30
2018-06-18T22:23:18.216Z,3.47
2018-06-18T22:28:53.097Z,3.27
2018-06-18T22:31:22.184Z,3.27
2018-06-18T22:33:51.424Z,3.47
2018-06-18T22:36:19.907Z,3.60
2018-06-18T22:38:48.632Z,4.03
2018-06-18T22:41:17.786Z,3.50
2018-06-18T22:43:46.860Z,3.72
2018-06-18T22:46:15.468Z,3.90
2018-06-18T22:48:43.995Z,3.60
2018-06-18T22:51:12.831Z,3.90
2018-06-18T22:59:35.960Z,4.07
2018-06-18T23:02:04.496Z,4.00
2018-06-18T23:04:32.912Z,3.75
2018-06-18T23:07:01.327Z,4.00
2018-06-18T23:09:29.803Z,3.77
2018-06-18T23:11:58.223Z,3.60
2018-06-18T23:14:40.410Z,3.87
2018-06-18T23:17:08.768Z,3.87
2018-06-18T23:19:37.262Z,3.70
2018-06-18T23:22:07.030Z,3.90
2018-06-18T23:24:37.054Z,3.90
2018-06-18T23:27:06.491Z,3.70
2018-06-18T23:29:35.002Z,3.57
2018-06-18T23:32:03.313Z,3.37
2018-06-18T23:34:31.984Z,3.77
2018-06-18T23:37:00.323Z,3.50
2018-06-18T23:39:28.683Z,3.55
2018-06-18T23:41:58.024Z,3.50
2018-06-18T23:44:45.183Z,3.47
2018-06-18T23:47:13.521Z,3.60
2018-06-18T23:49:41.847Z,3.77
2018-06-18T23:52:10.187Z,3.42
2018-06-18T23:54:38.560Z,3.55
2018-06-18T23:57:06.914Z,3.50
2018-06-18T23:59:35.199Z,3.57
